Flag for Germany

Past Weather in Herrsching am Ammersee, Bavaria, Germany — Yesterday and Last 2 Weeks

Currently: 30 °F. Clear. (Weather station: Oberpfaffenhofen, Germany). See more current weather

Past Weather in Herrsching am Ammersee — Graph

°F

Herrsching am Ammersee Temperature Yesterday

Maximum temperature yesterday: 57 °F (at 2:20 pm)
Minimum temperature yesterday: 21 °F (at 6:20 am)
Average temperature yesterday: 39 °F

High & Low Weather Summary for the Past Weeks

 TemperatureHumidityPressure
High66 °F (Feb 25, 1:20 pm)100% (Feb 18, 1:20 am)30.60 "Hg (Feb 18, 1:20 am)
Low21 °F (Mar 1, 4:50 am)28% (Feb 25, 12:50 pm)29.95 "Hg (Feb 18, 7:20 pm)
Average42 °F75%30.30 "Hg
* Reported Feb 16 3:20 am — Mar 3 3:20 am, Herrsching am Ammersee. Weather by CustomWeather, © 2021

Note: Actual official high and low records may vary slightly from our data, if they occured in-between our weather recording intervals... More about our weather records

Herrsching am Ammersee Weather History for the Previous 24 Hours

Scroll right to see more
 ConditionsComfort  
Time TempWeatherWind HumidityBarometerVisibility
3:20 am
Wed, Mar 3
27 °FClear.6 mph86%30.42 "HgN/A
2:50 am28 °FClear.6 mph86%30.42 "HgN/A
2:20 am30 °FClear.3 mph93%30.42 "HgN/A
1:50 am30 °FClear.2 mph93%30.45 "HgN/A
1:20 am30 °FPassing clouds.3 mph86%30.45 "HgN/A
12:50 am27 °FClear.6 mph93%30.45 "HgN/A
12:20 am27 °FClear.2 mph93%30.45 "HgN/A
11:50 pm
Tue, Mar 2
28 °FClear.3 mph93%30.45 "HgN/A
11:20 pm30 °FClear.5 mph93%30.45 "HgN/A
10:50 pm28 °FClear.3 mph93%30.45 "HgN/A
10:20 pm32 °FClear.2 mph93%30.45 "HgN/A
9:20 pm34 °FClear.5 mph81%30.45 "HgN/A
8:50 pm32 °FClear.3 mph93%30.45 "HgN/A
7:50 pm36 °FClear.5 mph87%30.45 "Hg10 mi
7:20 pm36 °FClear.2 mph87%30.45 "Hg10 mi
6:50 pm43 °FClear.1 mph71%30.45 "Hg10 mi
6:20 pm46 °FClear.2 mph62%30.45 "Hg10 mi
5:50 pm50 °FSunny.6 mph54%30.42 "Hg10 mi
5:20 pm54 °FSunny.6 mph51%30.42 "Hg10 mi
4:50 pm55 °FSunny.6 mph44%30.42 "Hg10 mi
4:20 pm55 °FPassing clouds.6 mph44%30.42 "HgN/A
3:50 pm57 °FPassing clouds.3 mph39%30.42 "HgN/A
3:20 pm57 °FPassing clouds.5 mph39%30.42 "HgN/A
2:50 pm57 °FPassing clouds.3 mph41%30.42 "HgN/A
2:20 pm57 °FSunny.2 mph36%30.45 "Hg10 mi
1:50 pm55 °FSunny.1 mph41%30.45 "Hg10 mi
12:50 pm54 °FPassing clouds.5 mph51%30.45 "HgN/A
12:20 pm52 °FPassing clouds.6 mph44%30.48 "HgN/A
11:50 am52 °FSunny.2 mph47%30.48 "Hg10 mi
11:20 am50 °FSunny.1 mph54%30.48 "Hg10 mi
10:50 am46 °FSunny.2 mph62%30.45 "Hg10 mi
10:20 am45 °FSunny.No wind66%30.45 "Hg10 mi
9:50 am41 °FSunny.1 mph76%30.45 "Hg10 mi
9:20 am37 °FSunny.No wind81%30.45 "Hg10 mi
8:50 am37 °FSunny.No wind87%30.45 "Hg10 mi
8:20 am32 °FSunny.2 mph93%30.45 "Hg10 mi
7:50 am25 °FSunny.3 mph93%30.45 "Hg10 mi
7:20 am25 °FClear.No wind93%30.42 "Hg6 mi
6:50 am23 °FClear.No wind100%30.42 "Hg10 mi
6:20 am21 °FClear.5 mph100%30.42 "HgN/A
5:50 am27 °FClear.2 mph93%30.42 "HgN/A
4:50 am23 °FClear.3 mph93%30.42 "HgN/A
4:20 am27 °FClear.2 mph100%30.42 "HgN/A
Weather by CustomWeather, © 2021

See weather overview